New Corn Hill, Texas
Current Conditions -  °F | °C
As of 3:55 AM on Friday 31 Oct 2014 (Local Time) from KGTU Reporting Station
Overcast Overcast  
Wind Chill: 63°   Ceiling: 9500
Heat Index: 63°   Visibility: 10mi
Dew Point: 59°   Wind: 6mph
Humidity: 88%   Direction: 320°NW
Pressure: 30.17"   Gusts: NA
Location:  30.7535°N, 97.5973°W
Report Text: KGTU 310855Z 32005KT 10SM FEW050 OVC095 17/15 A3017 RMK AO1 60001 52014
Loading
Personal Weather Stations






























Interactive Weather Map
Tropical Storm Tracking
New forecast layout! Learn more

10-Day Weather Forecast

Advertisements
Track Severe Weather on mobile